Time;durP1;ratioP1;P1;durP2;ratioP2;P2;SDS_P1;SDS_P2;PMS_P1;PMS_P2;Temp;Humidity;BMP_temperature;BMP_pressure;BME280_temperature;BME280_humidity;BME280_pressure;Samples;Min_cycle;Max_cycle;Signal;HPM_P1;HPM_P2
2022/11/19 00:00:15;;;;;;;12.73;5.73;;;;;;;19.34;58.67;97847.91;5134160;27;20171;-89
2022/11/19 00:02:41;;;;;;;13.00;5.97;;;;;;;18.96;59.28;97856.53;5133779;27;20155;-89
2022/11/19 00:05:10;;;;;;;16.13;7.40;;;;;;;18.55;60.13;97868.06;5134800;27;20251;-89
2022/11/19 00:07:39;;;;;;;14.40;6.43;;;;;;;18.14;61.01;97880.25;5133705;27;20179;-89
2022/11/19 00:10:10;;;;;;;17.03;7.10;;;;;;;17.82;61.87;97885.41;5133548;27;20183;-89
2022/11/19 00:12:54;;;;;;;15.27;6.60;;;;;;;17.49;62.94;97893.09;5132986;27;20223;-88
2022/11/19 00:15:22;;;;;;;14.07;7.10;;;;;;;17.24;64.08;97899.19;5134570;27;20228;-89
2022/11/19 00:17:48;;;;;;;18.67;7.93;;;;;;;17.09;64.80;97882.13;5134248;27;20167;-88
2022/11/19 00:20:16;;;;;;;21.10;8.30;;;;;;;16.52;67.08;97891.28;5134807;27;20174;-88
2022/11/19 00:22:42;;;;;;;14.40;6.17;;;;;;;16.20;68.61;97901.44;5134461;27;20170;-87
2022/11/19 00:25:09;;;;;;;16.40;7.33;;;;;;;16.10;69.26;97905.94;5134190;27;20684;-87
2022/11/19 00:27:35;;;;;;;12.97;5.77;;;;;;;15.92;70.24;97905.88;5134135;27;20178;-88
2022/11/19 00:30:03;;;;;;;20.07;7.33;;;;;;;15.83;70.48;97909.34;5134634;27;20177;-87
2022/11/19 00:32:30;;;;;;;14.97;6.40;;;;;;;15.71;71.04;97908.72;5134025;27;20189;-87
2022/11/19 00:34:57;;;;;;;16.37;6.50;;;;;;;15.69;71.23;97913.31;5134106;27;20169;-87
2022/11/19 00:37:22;;;;;;;14.30;7.27;;;;;;;15.46;72.06;97911.13;5134087;27;20190;-87
2022/11/19 00:39:49;;;;;;;15.80;6.20;;;;;;;15.23;73.58;97918.44;5134303;27;20173;-86
2022/11/19 00:42:15;;;;;;;20.53;7.60;;;;;;;15.18;73.99;97918.88;5134523;27;20535;-87
2022/11/19 00:44:42;;;;;;;23.90;9.10;;;;;;;15.22;74.01;97915.00;5134233;27;20276;-87
2022/11/19 00:47:09;;;;;;;19.33;7.93;;;;;;;15.13;73.90;97910.53;5133012;28;20173;-87
2022/11/19 00:49:34;;;;;;;15.47;7.20;;;;;;;15.16;73.94;97914.69;5134212;28;20179;-86
2022/11/19 00:52:01;;;;;;;18.63;7.13;;;;;;;15.10;74.43;97924.00;5134104;27;20505;-87
2022/11/19 00:54:26;;;;;;;20.77;6.90;;;;;;;14.93;74.97;97921.22;5134158;27;20258;-86
2022/11/19 00:56:52;;;;;;;15.83;5.37;;;;;;;14.83;75.62;97933.56;5134103;27;20202;-87
2022/11/19 00:59:18;;;;;;;19.33;5.90;;;;;;;14.63;76.14;97930.03;5132896;28;20175;-86
2022/11/19 01:01:45;;;;;;;30.03;7.10;;;;;;;14.44;77.09;97933.44;5130716;28;20241;-86
2022/11/19 01:04:12;;;;;;;15.30;5.77;;;;;;;14.34;78.44;97943.13;5129396;27;20617;-87
2022/11/19 01:06:39;;;;;;;19.53;7.63;;;;;;;14.49;77.64;97957.59;5129428;27;20175;-87
2022/11/19 01:09:06;;;;;;;22.30;7.83;;;;;;;14.58;77.85;97958.63;5112236;28;20176;-87
2022/11/19 01:11:34;;;;;;;36.90;8.07;;;;;;;14.73;77.12;97959.91;5115681;28;20274;-87
2022/11/19 01:14:01;;;;;;;40.40;8.03;;;;;;;14.81;76.36;97967.97;5117382;28;20191;-87
2022/11/19 01:16:34;;;;;;;31.73;7.53;;;;;;;14.87;76.12;97972.72;5117053;28;20171;-87
2022/11/19 01:18:59;;;;;;;32.83;7.47;;;;;;;14.82;76.35;97979.38;5117501;28;20180;-87
2022/11/19 01:21:29;;;;;;;21.53;8.17;;;;;;;14.84;76.18;97978.25;5116941;28;20535;-87
2022/11/19 01:23:57;;;;;;;23.47;7.43;;;;;;;14.82;76.24;97984.66;5117468;28;20159;-87
2022/11/19 01:26:24;;;;;;;35.03;8.60;;;;;;;14.82;76.49;97984.66;5117386;28;20186;-87
2022/11/19 01:28:50;;;;;;;21.03;7.90;;;;;;;14.87;76.34;97991.19;5116769;28;20183;-87
2022/11/19 01:31:20;;;;;;;30.13;7.90;;;;;;;14.72;76.73;97988.09;5116751;28;20187;-87
2022/11/19 01:33:46;;;;;;;35.07;8.57;;;;;;;14.70;77.08;97986.56;5116882;28;20202;-87
2022/11/19 01:36:15;;;;;;;39.07;8.23;;;;;;;14.63;77.18;97986.25;5116925;28;20177;-87
2022/11/19 01:38:41;;;;;;;63.13;10.43;;;;;;;14.64;77.36;97985.31;5116563;28;20169;-87
2022/11/19 01:41:08;;;;;;;37.87;9.27;;;;;;;14.66;77.32;97985.16;5116596;28;20183;-87
2022/11/19 01:43:39;;;;;;;30.03;12.10;;;;;;;14.70;77.18;97991.84;5116826;28;20176;-88
2022/11/19 01:46:06;;;;;;;33.53;11.90;;;;;;;14.73;76.94;97986.28;5116796;27;20200;-87
2022/11/19 01:48:36;;;;;;;44.07;11.83;;;;;;;14.69;77.24;97982.25;5116709;28;20177;-87
2022/11/19 01:51:08;;;;;;;51.37;11.83;;;;;;;14.66;77.20;97993.91;5116324;28;20202;-87
2022/11/19 01:53:35;;;;;;;28.67;11.23;;;;;;;14.67;77.32;97994.75;5116807;27;20226;-86
2022/11/19 01:56:05;;;;;;;37.80;11.20;;;;;;;14.64;77.35;97998.50;5116516;28;20210;-87
2022/11/19 01:58:41;;;;;;;34.43;12.13;;;;;;;14.52;78.17;98003.97;5116818;28;20248;-87
2022/11/19 02:01:09;;;;;;;35.23;12.10;;;;;;;14.43;78.45;98000.34;5116794;28;20187;-87
2022/11/19 02:03:37;;;;;;;46.30;13.10;;;;;;;14.45;78.28;98003.69;5116638;28;20171;-87
2022/11/19 02:06:03;;;;;;;44.83;14.23;;;;;;;14.44;78.64;98020.44;5116346;28;20179;-86
2022/11/19 02:08:41;;;;;;;47.97;14.13;;;;;;;14.52;78.53;98001.34;5116030;28;20258;-87
2022/11/19 02:11:35;;;;;;;39.07;13.40;;;;;;;14.63;78.06;98002.09;5114996;28;20562;-87
2022/11/19 02:14:22;;;;;;;38.53;14.57;;;;;;;14.61;78.19;98005.81;5115101;28;20255;-87
2022/11/19 02:17:24;;;;;;;56.40;13.00;;;;;;;14.73;77.96;98002.94;5115005;28;20164;-87
2022/11/19 02:20:09;;;;;;;35.73;12.50;;;;;;;14.84;77.24;98004.66;5114946;28;20248;-87
2022/11/19 02:22:40;;;;;;;45.57;13.97;;;;;;;14.86;76.99;98015.09;5114948;28;20225;-87
2022/11/19 02:25:30;;;;;;;36.37;13.50;;;;;;;14.88;77.03;98013.97;5116045;28;20157;-87
2022/11/19 02:28:28;;;;;;;24.70;10.17;;;;;;;14.84;76.38;98036.31;5116002;28;20156;-86
2022/11/19 02:31:04;;;;;;;52.30;11.70;;;;;;;14.68;76.99;98063.19;5115559;28;20176;-87
2022/11/19 02:34:12;;;;;;;24.00;10.00;;;;;;;14.53;78.13;98063.66;5115799;28;20184;-87
2022/11/19 02:37:13;;;;;;;20.57;8.67;;;;;;;14.45;78.08;98072.22;5085598;28;20632;-87
2022/11/19 02:40:16;;;;;;;29.30;8.83;;;;;;;14.25;79.37;98088.88;5115706;28;20206;-87
2022/11/19 02:43:01;;;;;;;19.27;6.80;;;;;;;14.00;80.98;98092.69;5102579;28;20654;-87
2022/11/19 02:45:35;;;;;;;32.30;10.87;;;;;;;13.79;82.33;98102.38;5131566;27;20178;-86
2022/11/19 02:48:21;;;;;;;27.20;9.57;;;;;;;13.78;83.35;98103.34;5115571;27;20171;-87
2022/11/19 02:50:59;;;;;;;26.20;12.77;;;;;;;13.62;84.78;98123.97;5132581;27;20254;-86
2022/11/19 02:53:24;;;;;;;29.60;10.73;;;;;;;13.61;84.90;98134.63;5131583;27;20188;-87
2022/11/19 03:04:31;;;;;;;33.80;14.00;;;;;;;13.57;86.90;98151.63;5115348;28;20281;-86
2022/11/19 03:07:07;;;;;;;34.00;13.23;;;;;;;13.60;87.26;98152.22;5115495;28;20230;-87
2022/11/19 03:09:37;;;;;;;40.67;14.37;;;;;;;13.57;87.48;98166.47;5114842;28;20180;-87
2022/11/19 03:12:48;;;;;;;35.33;12.40;;;;;;;13.66;87.31;98157.00;5114696;28;20223;-87
2022/11/19 03:18:55;;;;;;;31.37;12.10;;;;;;;13.94;85.59;98161.69;5052822;28;20176;-87
2022/11/19 03:21:48;;;;;;;30.07;13.20;;;;;;;14.14;84.47;98163.56;5115184;28;20156;-87
2022/11/19 03:24:28;;;;;;;33.40;13.33;;;;;;;14.23;83.98;98166.41;5131032;27;20515;-88
2022/11/19 03:27:02;;;;;;;38.07;13.83;;;;;;;14.34;82.67;98169.81;5115094;28;20632;-86
2022/11/19 03:29:33;;;;;;;36.23;12.93;;;;;;;14.29;82.34;98158.78;5115102;28;20241;-87
2022/11/19 03:32:12;;;;;;;31.90;11.13;;;;;;;14.36;81.62;98167.09;5130561;27;20231;-87
2022/11/19 03:34:41;;;;;;;36.33;13.77;;;;;;;14.22;81.15;98164.72;5129915;27;20171;-87
2022/11/19 03:37:09;;;;;;;40.13;13.40;;;;;;;14.18;81.52;98176.47;5115237;27;20321;-88
2022/11/19 03:39:37;;;;;;;39.27;12.53;;;;;;;14.24;81.91;98173.31;5114590;28;20203;-87
2022/11/19 03:42:07;;;;;;;31.80;12.73;;;;;;;14.40;80.70;98161.41;5114222;28;20172;-86
2022/11/19 03:44:47;;;;;;;32.60;11.93;;;;;;;14.48;80.27;98160.78;5114513;28;20210;-87
2022/11/19 03:47:19;;;;;;;27.87;12.17;;;;;;;14.55;80.20;98172.47;5114507;28;20246;-87
2022/11/19 03:49:51;;;;;;;34.63;11.77;;;;;;;14.64;79.38;98169.06;5114407;28;20179;-87
2022/11/19 03:52:19;;;;;;;36.43;12.80;;;;;;;14.64;78.85;98166.44;5114325;28;20656;-87
2022/11/19 03:54:46;;;;;;;45.77;13.97;;;;;;;14.57;79.05;98170.56;5114620;28;20226;-87
2022/11/19 03:57:15;;;;;;;33.17;11.73;;;;;;;14.64;78.40;98177.81;5114538;28;20552;-87
2022/11/19 03:59:41;;;;;;;32.10;11.40;;;;;;;14.50;79.00;98179.94;5113936;28;20187;-87
2022/11/19 04:02:10;;;;;;;34.80;13.60;;;;;;;14.38;79.74;98184.44;5114190;28;20179;-88
2022/11/19 04:04:36;;;;;;;39.60;13.67;;;;;;;14.38;79.72;98202.06;5113893;28;20179;-88
2022/11/19 04:07:10;;;;;;;29.50;12.47;;;;;;;14.48;79.72;98208.22;5130006;27;20175;-87
2022/11/19 04:09:37;;;;;;;29.87;12.00;;;;;;;14.64;79.16;98219.19;5114130;28;20152;-88
2022/11/19 04:12:05;;;;;;;31.43;11.37;;;;;;;14.70;78.98;98210.78;5113340;28;20258;-88
2022/11/19 04:14:31;;;;;;;33.50;12.43;;;;;;;14.69;79.17;98217.00;5114359;28;20179;-88
2022/11/19 04:16:58;;;;;;;28.73;11.47;;;;;;;14.75;79.27;98230.50;5113729;28;20188;-88
2022/11/19 04:19:25;;;;;;;26.90;12.23;;;;;;;14.85;79.32;98233.22;5113688;28;20252;-87
2022/11/19 04:21:52;;;;;;;24.67;12.27;;;;;;;14.91;79.41;98237.13;5113676;28;20202;-87
2022/11/19 04:24:19;;;;;;;27.57;11.70;;;;;;;14.92;79.30;98244.91;5114203;28;20643;-88
2022/11/19 04:26:46;;;;;;;27.63;13.73;;;;;;;15.01;79.27;98259.97;5113927;28;20618;-88
2022/11/19 04:29:13;;;;;;;26.07;11.77;;;;;;;15.09;79.00;98246.97;5114147;28;20177;-88
2022/11/19 04:31:39;;;;;;;32.50;13.30;;;;;;;15.18;78.51;98258.53;5129693;27;20208;-88
2022/11/19 04:34:06;;;;;;;38.17;13.07;;;;;;;15.19;78.26;98281.34;5112859;28;20509;-88
2022/11/19 04:36:33;;;;;;;34.70;12.47;;;;;;;15.10;78.41;98275.03;5113544;28;20188;-87
2022/11/19 04:39:01;;;;;;;34.70;12.30;;;;;;;15.06;78.05;98275.44;5113780;28;20189;-88
2022/11/19 04:41:27;;;;;;;31.53;12.47;;;;;;;14.95;78.24;98265.78;5113749;28;20241;-88
2022/11/19 04:43:53;;;;;;;36.50;13.03;;;;;;;14.81;78.57;98263.44;5113737;28;20183;-87
2022/11/19 04:46:20;;;;;;;35.97;13.03;;;;;;;14.89;78.28;98273.34;5117636;28;20177;-89
2022/11/19 04:48:47;;;;;;;35.33;13.70;;;;;;;14.76;78.66;98282.28;5117611;28;20173;-89
2022/11/19 04:51:14;;;;;;;31.67;13.13;;;;;;;14.88;78.57;98298.91;5117519;28;20629;-88
2022/11/19 04:53:41;;;;;;;31.03;12.30;;;;;;;14.97;77.96;98294.66;5117687;28;20201;-88
2022/11/19 04:56:09;;;;;;;40.83;13.47;;;;;;;14.99;77.84;98298.84;5116498;28;20179;-88
2022/11/19 04:58:36;;;;;;;38.80;13.67;;;;;;;14.94;77.21;98285.19;5118005;28;20175;-88
2022/11/19 05:01:03;;;;;;;30.83;12.83;;;;;;;14.92;77.14;98287.13;5117929;28;20262;-87
2022/11/19 05:03:31;;;;;;;40.10;14.73;;;;;;;14.90;77.40;98285.59;5116626;28;20543;-87
2022/11/19 05:05:58;;;;;;;37.80;15.17;;;;;;;14.89;77.08;98283.91;5117585;28;20172;-87
2022/11/19 05:08:24;;;;;;;39.50;14.47;;;;;;;14.86;77.32;98290.28;5117788;28;20182;-86
2022/11/19 05:10:50;;;;;;;35.77;13.60;;;;;;;14.86;77.38;98292.09;5117222;28;20179;-87
2022/11/19 05:13:16;;;;;;;37.53;13.33;;;;;;;14.84;77.89;98302.75;5117039;28;20212;-87
2022/11/19 05:15:43;;;;;;;38.63;12.70;;;;;;;14.86;78.01;98308.75;5117682;28;20172;-87
2022/11/19 05:18:08;;;;;;;36.00;13.13;;;;;;;14.98;77.69;98315.66;5117080;28;20233;-88
2022/11/19 05:20:35;;;;;;;39.17;13.23;;;;;;;14.98;77.55;98318.28;5117029;28;20167;-87
2022/11/19 05:23:00;;;;;;;33.30;13.90;;;;;;;15.01;77.73;98322.47;5116847;28;20177;-87
2022/11/19 05:25:27;;;;;;;41.03;14.03;;;;;;;15.01;77.58;98325.97;5116974;28;20514;-87
2022/11/19 05:27:52;;;;;;;36.87;14.07;;;;;;;15.04;77.42;98328.31;5116902;28;20172;-88
2022/11/19 05:30:21;;;;;;;27.53;12.10;;;;;;;15.03;77.32;98318.75;5117086;28;20177;-87
2022/11/19 05:32:46;;;;;;;29.97;11.77;;;;;;;15.07;77.34;98327.22;5132922;27;20288;-87
2022/11/19 05:35:12;;;;;;;34.33;11.60;;;;;;;15.10;77.54;98340.16;5116756;28;20256;-87
2022/11/19 05:37:39;;;;;;;29.17;12.27;;;;;;;15.12;77.50;98347.00;5116961;28;20278;-87
2022/11/19 05:40:06;;;;;;;30.27;12.77;;;;;;;15.17;77.72;98339.53;5116951;28;20178;-87
2022/11/19 05:42:33;;;;;;;26.93;11.03;;;;;;;15.16;77.59;98348.44;5123187;27;20210;-87
2022/11/19 05:44:59;;;;;;;29.23;12.00;;;;;;;15.19;77.80;98357.91;5137111;27;20175;-87
2022/11/19 05:47:26;;;;;;;32.50;13.53;;;;;;;15.25;78.04;98381.97;5136141;27;20173;-87
2022/11/19 05:49:53;;;;;;;34.53;15.17;;;;;;;15.33;77.68;98398.00;5137569;27;20172;-87
2022/11/19 05:52:18;;;;;;;39.83;17.50;;;;;;;15.33;77.96;98390.09;5137254;27;20202;-87
2022/11/19 05:54:45;;;;;;;35.40;15.07;;;;;;;15.27;78.03;98382.69;5136717;27;20191;-88
2022/11/19 05:57:23;;;;;;;40.43;15.07;;;;;;;15.28;78.55;98378.22;5135968;27;20183;-88
2022/11/19 05:59:50;;;;;;;38.17;15.13;;;;;;;15.34;77.93;98378.56;5134111;27;20189;-89
2022/11/19 06:02:15;;;;;;;42.10;15.37;;;;;;;15.37;78.12;98394.16;5133540;27;20224;-89
2022/11/19 06:04:42;;;;;;;37.20;15.63;;;;;;;15.41;78.33;98397.34;5135439;27;20177;-88
2022/11/19 06:07:07;;;;;;;40.90;15.07;;;;;;;15.44;78.11;98406.81;5133999;27;20330;-90
2022/11/19 06:09:33;;;;;;;36.37;15.17;;;;;;;15.47;78.26;98415.38;5135485;27;20631;-89
2022/11/19 06:11:58;;;;;;;31.93;14.50;;;;;;;15.61;77.58;98412.41;5132542;27;20193;-89
2022/11/19 06:14:50;;;;;;;44.53;15.10;;;;;;;15.61;77.83;98414.22;5136103;27;20578;-90
2022/11/19 06:17:37;;;;;;;36.53;14.63;;;;;;;15.70;78.63;98418.72;5113975;28;20560;-89
2022/11/19 06:20:07;;;;;;;85.93;27.70;;;;;;;15.80;78.67;98427.56;5129733;27;20229;-88
2022/11/19 06:22:35;;;;;;;61.13;22.53;;;;;;;15.61;79.40;98430.06;5113805;28;20172;-88
2022/11/19 06:25:00;;;;;;;46.53;16.83;;;;;;;15.69;79.35;98431.09;5113062;27;20183;-88
2022/11/19 06:27:26;;;;;;;40.00;15.43;;;;;;;15.84;79.05;98439.53;5111889;28;20179;-88
2022/11/19 06:29:51;;;;;;;41.63;15.53;;;;;;;15.87;78.77;98426.91;5112612;28;20202;-88
2022/11/19 06:32:17;;;;;;;46.70;15.93;;;;;;;15.95;78.83;98436.81;5113741;28;20197;-89
2022/11/19 06:34:43;;;;;;;44.50;15.30;;;;;;;15.92;78.80;98431.78;5112511;28;20181;-89
2022/11/19 06:37:08;;;;;;;36.83;13.47;;;;;;;15.99;79.11;98443.50;5113691;28;20619;-88
2022/11/19 06:39:35;;;;;;;34.80;14.37;;;;;;;16.08;78.50;98448.00;5124275;27;20657;-88
2022/11/19 06:44:47;;;;;;;37.57;14.63;;;;;;;16.46;76.63;98465.84;5125470;27;20642;-88
2022/11/19 06:47:14;;;;;;;39.17;13.93;;;;;;;16.51;75.99;98461.81;5133455;27;20555;-88
2022/11/19 06:49:40;;;;;;;34.73;13.57;;;;;;;16.54;75.79;98460.75;5133907;27;20286;-88
2022/11/19 06:52:07;;;;;;;53.00;15.37;;;;;;;16.52;75.82;98452.97;5133854;27;20197;-89
2022/11/19 06:54:34;;;;;;;37.23;14.40;;;;;;;16.49;76.21;98447.06;5134321;27;20175;-88
2022/11/19 06:57:06;;;;;;;34.73;13.87;;;;;;;16.52;76.71;98458.25;5133905;27;20266;-88
2022/11/19 06:59:35;;;;;;;38.77;14.47;;;;;;;16.67;76.68;98458.69;5135601;27;20168;-88
2022/11/19 07:02:00;;;;;;;39.63;14.63;;;;;;;16.78;77.15;98468.34;5135116;27;20189;-88
2022/11/19 07:04:27;;;;;;;36.37;13.23;;;;;;;16.91;77.04;98461.00;5135481;27;20175;-88
2022/11/19 07:06:53;;;;;;;40.80;15.10;;;;;;;16.95;77.02;98465.91;5134513;27;20217;-88
2022/11/19 07:09:20;;;;;;;36.90;13.63;;;;;;;17.05;77.55;98455.31;5135647;27;20258;-89
2022/11/19 07:11:47;;;;;;;32.77;14.73;;;;;;;17.11;77.57;98439.69;5134821;27;20183;-88
2022/11/19 07:14:13;;;;;;;36.37;14.23;;;;;;;17.23;77.28;98418.38;5135193;27;20294;-88
2022/11/19 07:16:43;;;;;;;37.40;16.03;;;;;;;17.09;76.93;98409.88;5134270;27;20221;-89
2022/11/19 07:19:08;;;;;;;41.87;16.27;;;;;;;17.25;77.11;98430.50;5134245;27;20266;-88
2022/11/19 07:21:34;;;;;;;36.47;16.10;;;;;;;17.36;76.13;98464.81;5135189;27;20202;-88
2022/11/19 07:24:04;;;;;;;44.63;15.63;;;;;;;17.52;74.64;98478.34;5135705;27;20174;-88
2022/11/19 07:26:32;;;;;;;37.17;14.33;;;;;;;17.43;74.98;98465.91;5135654;27;20185;-87
2022/11/19 07:29:07;;;;;;;29.73;12.37;;;;;;;17.44;75.73;98462.31;5135330;27;20258;-88
2022/11/19 07:31:34;;;;;;;36.43;14.30;;;;;;;17.43;76.66;98452.66;5134080;27;20170;-89
2022/11/19 07:34:05;;;;;;;29.70;12.90;;;;;;;17.65;77.77;98455.06;5134275;27;20717;-89
2022/11/19 07:36:30;;;;;;;25.97;11.77;;;;;;;17.92;76.64;98453.50;5135269;27;20177;-88
2022/11/19 07:38:56;;;;;;;29.37;11.70;;;;;;;18.00;77.23;98466.88;5135094;27;20176;-89
2022/11/19 07:44:07;;;;;;;24.43;10.20;;;;;;;18.48;75.96;98490.59;5134828;27;20247;-89
2022/11/19 07:46:34;;;;;;;25.57;9.77;;;;;;;18.62;74.96;98495.44;5134808;27;20171;-88
2022/11/19 07:49:00;;;;;;;20.93;11.37;;;;;;;18.80;74.58;98493.69;5135252;27;20175;-88
2022/11/19 07:51:26;;;;;;;23.73;10.53;;;;;;;19.03;74.77;98490.47;5131453;27;20199;-89
2022/11/19 07:53:53;;;;;;;31.63;11.23;;;;;;;19.08;73.78;98489.22;5125619;27;20245;-89
2022/11/19 07:56:23;;;;;;;26.47;9.90;;;;;;;19.25;75.39;98493.69;5122352;27;20194;-89
2022/11/19 07:58:50;;;;;;;24.47;10.77;;;;;;;19.44;74.35;98486.44;5113987;28;20241;-89
2022/11/19 08:01:21;;;;;;;18.50;9.30;;;;;;;19.60;71.80;98496.41;5113374;28;20201;-89
2022/11/19 08:03:48;;;;;;;23.87;8.90;;;;;;;19.71;71.49;98505.94;5112992;28;20617;-89
2022/11/19 08:06:14;;;;;;;18.27;8.87;;;;;;;19.97;70.95;98505.00;5119000;27;20190;-89
2022/11/19 08:08:41;;;;;;;25.27;10.37;;;;;;;20.20;69.38;98506.16;5123156;27;20261;-89
2022/11/19 08:11:10;;;;;;;21.97;9.40;;;;;;;20.35;68.67;98500.31;5113784;28;20548;-89
2022/11/19 08:13:35;;;;;;;18.73;8.30;;;;;;;20.42;68.23;98498.69;5114120;28;20228;-89
2022/11/19 08:16:04;;;;;;;18.60;8.13;;;;;;;20.51;68.06;98503.91;5113967;28;20258;-88
2022/11/19 08:18:30;;;;;;;18.87;9.10;;;;;;;20.57;67.42;98513.91;5112995;28;20272;-88
2022/11/19 08:21:10;;;;;;;17.33;7.40;;;;;;;20.77;66.72;98525.16;5124952;27;20201;-88
2022/11/19 08:23:38;;;;;;;17.60;8.33;;;;;;;20.80;66.29;98523.03;5113642;28;20152;-87
2022/11/19 08:26:06;;;;;;;23.30;8.60;;;;;;;20.84;66.39;98523.53;5113591;28;20605;-88
2022/11/19 08:28:32;;;;;;;15.23;7.07;;;;;;;20.87;65.77;98525.88;5113595;28;20209;-88
2022/11/19 08:31:07;;;;;;;18.07;7.50;;;;;;;20.82;65.36;98523.72;5112888;28;20179;-88
2022/11/19 08:33:35;;;;;;;19.77;8.77;;;;;;;20.86;65.05;98528.72;5112486;28;20564;-88
2022/11/19 08:36:02;;;;;;;18.00;8.13;;;;;;;20.89;64.81;98523.03;5113529;28;20176;-89
2022/11/19 08:38:28;;;;;;;20.53;8.83;;;;;;;20.84;65.11;98524.38;5113528;28;20580;-87
2022/11/19 08:42:58;;;;;;;15.63;7.67;;;;;;;20.81;63.77;98515.84;5113026;28;20176;-87
2022/11/19 08:43:41;;;;;;;20.00;9.17;;;;;;;20.83;63.44;98524.53;5111464;28;20208;-88
2022/11/19 08:46:07;;;;;;;21.30;9.10;;;;;;;20.91;62.81;98519.22;5111483;28;20258;-87
2022/11/19 08:48:33;;;;;;;15.23;7.13;;;;;;;21.01;63.16;98516.44;5110307;28;20187;-87
2022/11/19 08:51:05;;;;;;;13.93;7.20;;;;;;;21.09;62.60;98527.16;5111647;28;20178;-88
2022/11/19 08:53:31;;;;;;;21.07;8.47;;;;;;;21.03;62.46;98520.63;5112150;28;20199;-88
2022/11/19 08:55:57;;;;;;;13.63;6.50;;;;;;;21.20;62.57;98521.56;5113366;28;20171;-88
2022/11/19 08:58:23;;;;;;;16.43;7.30;;;;;;;21.14;62.14;98525.69;5113341;28;20256;-88
2022/11/19 09:00:48;;;;;;;15.97;7.67;;;;;;;21.03;62.54;98533.94;5112334;28;20184;-87
2022/11/19 09:03:14;;;;;;;15.43;7.63;;;;;;;20.83;62.29;98540.53;5113286;28;20178;-88
2022/11/19 09:05:40;;;;;;;14.00;7.77;;;;;;;20.66;63.15;98544.94;5113273;28;20595;-88
2022/11/19 09:08:06;;;;;;;14.20;7.30;;;;;;;20.87;63.51;98547.19;5113253;28;20176;-88
2022/11/19 09:10:32;;;;;;;23.93;6.70;;;;;;;21.11;63.12;98550.00;5113272;28;20176;-88
2022/11/19 09:13:00;;;;;;;17.63;6.60;;;;;;;21.26;62.46;98545.72;5113076;28;20290;-88
2022/11/19 09:15:26;;;;;;;12.37;6.13;;;;;;;21.16;62.16;98547.69;5113211;28;20317;-87
2022/11/19 09:17:52;;;;;;;18.97;7.17;;;;;;;21.46;62.96;98538.28;5113727;28;20226;-88
2022/11/19 09:20:17;;;;;;;15.03;7.20;;;;;;;21.65;62.74;98534.44;5113221;28;20236;-88
2022/11/19 09:22:43;;;;;;;12.90;7.00;;;;;;;21.95;60.66;98533.84;5113125;28;20175;-87
2022/11/19 09:25:08;;;;;;;15.03;6.00;;;;;;;22.13;61.03;98529.16;5112173;28;20562;-88
2022/11/19 09:27:35;;;;;;;14.20;7.07;;;;;;;22.20;59.50;98522.16;5113364;28;20180;-88
2022/11/19 09:30:00;;;;;;;17.37;6.93;;;;;;;22.36;59.45;98519.47;5113343;28;20179;-88
2022/11/19 09:32:27;;;;;;;11.33;6.63;;;;;;;22.54;59.36;98516.56;5115355;28;20195;-88
2022/11/19 09:34:52;;;;;;;15.50;7.27;;;;;;;22.64;58.74;98510.06;5116742;28;20172;-88
2022/11/19 09:37:18;;;;;;;14.17;6.93;;;;;;;22.78;58.02;98505.84;5116989;28;20583;-88
2022/11/19 09:39:43;;;;;;;14.70;7.10;;;;;;;22.85;58.16;98508.69;5116927;28;20214;-87
2022/11/19 09:42:28;;;;;;;10.20;5.13;;;;;;;22.91;57.37;98506.13;5115602;28;20176;-88
2022/11/19 09:45:15;;;;;;;11.17;5.03;;;;;;;23.18;57.19;98512.88;5117141;28;20175;-87
2022/11/19 09:47:43;;;;;;;10.40;5.03;;;;;;;23.42;55.40;98523.47;5116772;28;20172;-88
2022/11/19 09:50:17;;;;;;;8.57;4.63;;;;;;;23.43;52.92;98527.78;5115440;28;20244;-87
2022/11/19 09:53:10;;;;;;;9.47;4.63;;;;;;;23.47;52.84;98521.09;5116315;28;20195;-87
2022/11/19 09:55:40;;;;;;;9.17;4.50;;;;;;;23.41;53.10;98512.91;5115783;28;20525;-88
2022/11/19 09:58:13;;;;;;;6.73;3.90;;;;;;;23.44;52.39;98517.94;5115347;28;20229;-88
2022/11/19 10:00:39;;;;;;;12.50;5.00;;;;;;;23.55;53.55;98521.03;5115300;28;20168;-88
2022/11/19 10:03:13;;;;;;;8.77;4.23;;;;;;;23.67;52.35;98503.53;5115224;28;20183;-89
2022/11/19 10:05:45;;;;;;;10.00;4.90;;;;;;;23.66;52.88;98507.22;5115211;28;20699;-87
2022/11/19 10:08:29;;;;;;;8.67;4.47;;;;;;;23.80;52.50;98495.75;5116376;28;20168;-87
2022/11/19 10:11:25;;;;;;;11.73;4.80;;;;;;;23.85;50.80;98490.69;5116064;28;20156;-88
2022/11/19 10:14:16;;;;;;;10.53;5.60;;;;;;;23.63;52.25;98480.00;5114899;28;20583;-88
2022/11/19 10:17:12;;;;;;;10.97;6.00;;;;;;;23.60;52.23;98485.72;5116798;28;20596;-87
2022/11/19 10:20:08;;;;;;;11.47;5.70;;;;;;;23.78;52.52;98478.22;5116141;28;20307;-88
2022/11/19 10:22:49;;;;;;;12.90;6.43;;;;;;;23.79;52.49;98478.03;5114875;28;20172;-88
2022/11/19 10:25:18;;;;;;;11.53;5.27;;;;;;;23.81;52.37;98476.03;5116092;28;20616;-88
2022/11/19 10:27:51;;;;;;;11.27;5.47;;;;;;;23.80;52.46;98465.47;5115726;28;20278;-88
2022/11/19 10:30:20;;;;;;;12.50;5.73;;;;;;;24.01;52.69;98476.34;5115703;28;20156;-88
2022/11/19 10:33:01;;;;;;;11.43;5.63;;;;;;;24.08;51.74;98469.25;5116439;28;20196;-88
2022/11/19 10:35:37;;;;;;;13.23;5.87;;;;;;;24.20;52.51;98466.97;5115910;28;20159;-88
2022/11/19 10:38:23;;;;;;;14.13;6.43;;;;;;;24.17;52.52;98459.31;5116109;28;20164;-87
2022/11/19 10:40:58;;;;;;;12.13;6.27;;;;;;;24.31;52.72;98453.97;5115799;28;20706;-88
2022/11/19 10:43:34;;;;;;;13.50;6.33;;;;;;;24.51;52.31;98456.94;5114430;28;20520;-87
2022/11/19 10:46:03;;;;;;;13.00;6.40;;;;;;;24.42;51.44;98452.69;5115703;28;20156;-87
2022/11/19 10:48:44;;;;;;;12.30;6.27;;;;;;;24.52;51.36;98468.50;5115628;28;20617;-88
2022/11/19 10:51:17;;;;;;;14.67;7.70;;;;;;;24.54;52.13;98451.22;5115257;28;20243;-87
2022/11/19 10:53:44;;;;;;;14.93;7.00;;;;;;;24.66;52.65;98452.38;5115166;28;20192;-88
2022/11/19 10:56:23;;;;;;;14.50;7.10;;;;;;;24.67;52.14;98443.34;5115158;28;20176;-87
2022/11/19 10:58:53;;;;;;;12.53;6.90;;;;;;;24.65;52.21;98442.69;5115536;27;20195;-87
2022/11/19 11:01:31;;;;;;;17.30;8.00;;;;;;;24.58;52.77;98443.63;5115045;28;20182;-87
2022/11/19 11:04:06;;;;;;;14.87;7.90;;;;;;;24.50;52.53;98443.72;5115581;28;20199;-87
2022/11/19 11:06:53;;;;;;;16.53;8.50;;;;;;;24.65;52.60;98448.06;5115317;28;20259;-87
2022/11/19 11:09:28;;;;;;;19.13;8.37;;;;;;;24.78;52.68;98444.72;5115154;28;20296;-87
2022/11/19 11:14:51;;;;;;;19.50;8.83;;;;;;;24.71;51.92;98452.66;5114872;28;20224;-87
2022/11/19 11:17:37;;;;;;;19.43;8.83;;;;;;;24.77;52.65;98443.88;5114670;28;20171;-87
2022/11/19 11:20:21;;;;;;;15.20;7.37;;;;;;;24.71;52.06;98444.63;5113779;28;20255;-87
2022/11/19 11:22:49;;;;;;;15.03;6.93;;;;;;;24.57;53.21;98442.81;5113745;28;20185;-87
2022/11/19 11:25:19;;;;;;;20.13;8.70;;;;;;;24.50;53.45;98447.25;5114856;28;20180;-87
2022/11/19 11:27:45;;;;;;;16.47;8.23;;;;;;;24.45;53.73;98439.75;5114907;28;20628;-87
2022/11/19 11:30:10;;;;;;;20.83;8.13;;;;;;;24.48;54.28;98435.84;5114541;28;20193;-87
2022/11/19 11:32:37;;;;;;;16.80;7.57;;;;;;;24.30;54.25;98438.09;5115007;28;20195;-87
2022/11/19 11:35:05;;;;;;;17.13;8.00;;;;;;;24.27;54.42;98435.75;5114995;27;20176;-88
2022/11/19 11:37:32;;;;;;;18.47;8.80;;;;;;;24.09;55.23;98437.97;5134983;27;20175;-87
2022/11/19 11:40:00;;;;;;;19.87;9.47;;;;;;;24.07;55.02;98429.25;5133872;27;20190;-87
2022/11/19 11:42:28;;;;;;;21.00;9.33;;;;;;;24.06;55.42;98428.41;5134419;27;20183;-87
2022/11/19 11:45:00;;;;;;;20.13;9.10;;;;;;;23.92;55.93;98426.56;5134075;27;20175;-87
2022/11/19 11:47:35;;;;;;;19.17;10.20;;;;;;;23.74;55.92;98437.59;5133135;27;20182;-87
2022/11/19 11:50:43;;;;;;;18.90;9.90;;;;;;;23.83;56.26;98433.84;5114267;27;20189;-87
2022/11/19 11:53:15;;;;;;;23.37;9.03;;;;;;;23.93;56.28;98430.06;5072288;28;20370;-87
2022/11/19 11:55:42;;;;;;;24.20;9.00;;;;;;;24.07;55.65;98429.25;5071515;28;20196;-87
2022/11/19 11:58:30;;;;;;;21.83;9.80;;;;;;;24.28;55.48;98434.75;5071756;28;20192;-87